KFTY

Fulton County-Brown Field Airport

Atlanta, Georgia, USA
METAR KFTY 201953Z 16004KT 10SM SCT027 SCT035 BKN055 28/23 A3003 RMK AO2 SLP160 T02830228
Observed Flight Rules
Aug-20 @ 19:53 UTC (36 minutes ago) Visual Flight Rules
Wind Visibility Clouds
160° at 4 knots 10 miles
  • Scattered at 2,700' AGL
  • Scattered at 3,500' AGL
  • Broken at 5,500' AGL
Temperatures Readings
Current 28°C / 82°F
Dewpoint 23°C / 73°F
Humidity 74%
Altimeter 30.03" Hg
Pressure 1016 hPa
Elevation 263
METAR KFTY 201953Z 16004KT 10SM SCT027 SCT035 BKN055 28/23 A3003 RMK AO2 SLP160 T02830228
Observed Flight Rules
Aug-20 @ 19:53 UTC
(36 minutes ago)
VFR
Wind Visibility
160° at 4 knots 10 miles
Clouds
  • Scattered at 2,700' AGL
  • Scattered at 3,500' AGL
  • Broken at 5,500' AGL
Temperature Dewpoint
28°C / 82°F 23°C / 73°F
Humidity Altimeter Pressure
74% 30.03" Hg 1016 hPa